Time;durP1;ratioP1;P1;durP2;ratioP2;P2;SDS_P1;SDS_P2;PMS_P1;PMS_P2;Temp;Humidity;BMP_temperature;BMP_pressure;BME280_temperature;BME280_humidity;BME280_pressure;Samples;Min_cycle;Max_cycle;Signal;HPM_P1;HPM_P2
2022/10/29 00:00:20;;;;;;;;;;;;;;;;;;5080251;28;19912;-59
2022/10/29 00:02:45;;;;;;;;;;;;;;;;;;5091570;28;19947;-58
2022/10/29 00:05:11;;;;;;;;;;;;;;;;;;5095153;28;20007;-59
2022/10/29 00:07:37;;;;;;;;;;;;;;;;;;5096010;28;20012;-59
2022/10/29 00:10:03;;;;;;;;;;;;;;;;;;5095287;28;19912;-59
2022/10/29 00:12:29;;;;;;;;;;;;;;;;;;5086607;28;20005;-59
2022/10/29 00:14:55;;;;;;;;;;;;;;;;;;5095587;28;20287;-58
2022/10/29 00:17:21;;;;;;;;;;;;;;;;;;5091739;28;19955;-57
2022/10/29 00:19:47;;;;;;;;;;;;;;;;;;5095038;28;19934;-59
2022/10/29 00:22:13;;;;;;;;;;;;;;;;;;5089803;28;20338;-58
2022/10/29 00:24:39;;;;;;;;;;;;;;;;;;5075241;28;19952;-58
2022/10/29 00:27:05;;;;;;;;;;;;;;;;;;5089361;28;19999;-58
2022/10/29 00:29:31;;;;;;;;;;;;;;;;;;5093410;28;20413;-59
2022/10/29 00:31:57;;;;;;;;;;;;;;;;;;5094237;28;19912;-59
2022/10/29 00:34:23;;;;;;;;;;;;;;;;;;5094354;28;20291;-59
2022/10/29 00:36:49;;;;;;;;;;;;;;;;;;5076585;28;19962;-59
2022/10/29 00:39:15;;;;;;;;;;;;;;;;;;5086950;28;19912;-59
2022/10/29 00:41:40;;;;;;;;;;;;;;;;;;5090553;28;19963;-58
2022/10/29 00:44:06;;;;;;;;;;;;;;;;;;5095234;28;19934;-59
2022/10/29 00:46:32;;;;;;;;;;;;;;;;;;5093255;28;19991;-59
2022/10/29 00:48:58;;;;;;;;;;;;;;;;;;5093716;28;19923;-57
2022/10/29 00:51:24;;;;;;;;;;;;;;;;;;5080938;28;19912;-59
2022/10/29 00:53:50;;;;;;;;;;;;;;;;;;5095012;28;20392;-59
2022/10/29 00:56:16;;;;;;;;;;;;;;;;;;5093830;28;20017;-59
2022/10/29 00:58:42;;;;;;;;;;;;;;;;;;5087880;28;20023;-59
2022/10/29 01:01:08;;;;;;;;;;;;;;;;;;5094235;28;20400;-58
2022/10/29 01:03:33;;;;;;;;;;;;;;;;;;5093250;28;20010;-59
2022/10/29 01:05:59;;;;;;;;;;;;;;;;;;5094015;28;19964;-59
2022/10/29 01:08:25;;;;;;;;;;;;;;;;;;5093072;28;20444;-59
2022/10/29 01:10:51;;;;;;;;;;;;;;;;;;5093619;28;20004;-59
2022/10/29 01:13:17;;;;;;;;;;;;;;;;;;5093575;28;19912;-59
2022/10/29 01:15:43;;;;;;;;;;;;;;;;;;5093588;28;20378;-59
2022/10/29 01:18:09;;;;;;;;;;;;;;;;;;5094384;28;19915;-59
2022/10/29 01:20:35;;;;;;;;;;;;;;;;;;5093787;28;19955;-58
2022/10/29 01:23:01;;;;;;;;;;;;;;;;;;5086657;28;19920;-59
2022/10/29 01:33:41;;;;;;;;;;;;;;;;;;5094170;28;19966;-58
2022/10/29 01:36:07;;;;;;;;;;;;;;;;;;5091790;28;19908;-59
2022/10/29 01:38:33;;;;;;;;;;;;;;;;;;5087583;28;20062;-58
2022/10/29 01:40:59;;;;;;;;;;;;;;;;;;5090939;28;20011;-59
2022/10/29 01:43:25;;;;;;;;;;;;;;;;;;5093703;28;20007;-59
2022/10/29 01:45:51;;;;;;;;;;;;;;;;;;5092677;28;20454;-59
2022/10/29 01:48:17;;;;;;;;;;;;;;;;;;5093635;28;19908;-59
2022/10/29 01:50:43;;;;;;;;;;;;;;;;;;5092670;28;20435;-59
2022/10/29 01:53:09;;;;;;;;;;;;;;;;;;5089260;28;19912;-59
2022/10/29 01:55:35;;;;;;;;;;;;;;;;;;5093160;28;19916;-58
2022/10/29 01:58:02;;;;;;;;;;;;;;;;;;5091175;28;19970;-59
2022/10/29 02:00:28;;;;;;;;;;;;;;;;;;5084465;28;19915;-59
2022/10/29 02:02:54;;;;;;;;;;;;;;;;;;5092633;28;19947;-59
2022/10/29 02:05:20;;;;;;;;;;;;;;;;;;5093546;28;20286;-58
2022/10/29 02:07:46;;;;;;;;;;;;;;;;;;5093081;28;19935;-59
2022/10/29 02:10:11;;;;;;;;;;;;;;;;;;5104263;28;19916;-58
2022/10/29 02:12:37;;;;;;;;;;;;;;;;;;5090252;28;20345;-59
2022/10/29 02:15:03;;;;;;;;;;;;;;;;;;5093297;28;19912;-59
2022/10/29 02:17:29;;;;;;;;;;;;;;;;;;5092593;28;19908;-59
2022/10/29 02:19:55;;;;;;;;;;;;;;;;;;5091644;28;20008;-59
2022/10/29 02:22:21;;;;;;;;;;;;;;;;;;5092462;28;19924;-59
2022/10/29 02:24:47;;;;;;;;;;;;;;;;;;5092013;28;19973;-59
2022/10/29 02:27:13;;;;;;;;;;;;;;;;;;5091041;28;19995;-59
2022/10/29 02:29:39;;;;;;;;;;;;;;;;;;5091270;28;19926;-59
2022/10/29 02:32:04;;;;;;;;;;;;;;;;;;5092704;28;19988;-59
2022/10/29 02:34:30;;;;;;;;;;;;;;;;;;5092997;28;19918;-59
2022/10/29 02:36:56;;;;;;;;;;;;;;;;;;5085415;28;19913;-59
2022/10/29 02:39:22;;;;;;;;;;;;;;;;;;5098920;28;19970;-59
2022/10/29 02:41:48;;;;;;;;;;;;;;;;;;5087614;28;20359;-59
2022/10/29 02:44:14;;;;;;;;;;;;;;;;;;5092949;28;19922;-59
2022/10/29 02:46:40;;;;;;;;;;;;;;;;;;5091621;28;20311;-58
2022/10/29 02:49:06;;;;;;;;;;;;;;;;;;5092860;28;19914;-59
2022/10/29 02:51:32;;;;;;;;;;;;;;;;;;5092092;28;20003;-58
2022/10/29 02:53:58;;;;;;;;;;;;;;;;;;5092422;28;19907;-59
2022/10/29 02:56:24;;;;;;;;;;;;;;;;;;5092314;28;19957;-58
2022/10/29 02:58:50;;;;;;;;;;;;;;;;;;5092604;28;20379;-58
2022/10/29 03:01:16;;;;;;;;;;;;;;;;;;5096540;28;19912;-59
2022/10/29 03:03:42;;;;;;;;;;;;;;;;;;5099598;28;19955;-58
2022/10/29 03:06:07;;;;;;;;;;;;;;;;;;5092121;28;19908;-57
2022/10/29 03:08:33;;;;;;;;;;;;;;;;;;5091758;28;19928;-59
2022/10/29 03:10:59;;;;;;;;;;;;;;;;;;5095593;28;20263;-59
2022/10/29 03:13:25;;;;;;;;;;;;;;;;;;5089344;28;19932;-58
2022/10/29 03:15:51;;;;;;;;;;;;;;;;;;5089567;28;20322;-58
2022/10/29 03:18:17;;;;;;;;;;;;;;;;;;5084595;28;19924;-59
2022/10/29 03:20:44;;;;;;;;;;;;;;;;;;5091168;28;19992;-59
2022/10/29 03:23:10;;;;;;;;;;;;;;;;;;5102983;28;19944;-59
2022/10/29 03:25:36;;;;;;;;;;;;;;;;;;5092235;28;19908;-59
2022/10/29 03:28:01;;;;;;;;;;;;;;;;;;5084124;28;20346;-58
2022/10/29 03:30:27;;;;;;;;;;;;;;;;;;5087167;28;19912;-56
2022/10/29 03:32:53;;;;;;;;;;;;;;;;;;5092226;28;19912;-59
2022/10/29 03:35:19;;;;;;;;;;;;;;;;;;5091672;28;19913;-59
2022/10/29 03:37:45;;;;;;;;;;;;;;;;;;5094236;28;19974;-59
2022/10/29 03:40:11;;;;;;;;;;;;;;;;;;5090939;28;20264;-59
2022/10/29 03:42:37;;;;;;;;;;;;;;;;;;5098936;28;19920;-59
2022/10/29 03:45:03;;;;;;;;;;;;;;;;;;5091581;28;19912;-58
2022/10/29 03:47:29;;;;;;;;;;;;;;;;;;5091372;28;20010;-59
2022/10/29 03:49:54;;;;;;;;;;;;;;;;;;5089655;28;19919;-59
2022/10/29 03:52:20;;;;;;;;;;;;;;;;;;5091266;28;19940;-59
2022/10/29 03:54:46;;;;;;;;;;;;;;;;;;5090870;28;19966;-59
2022/10/29 03:57:12;;;;;;;;;;;;;;;;;;5090929;28;19912;-59
2022/10/29 03:59:38;;;;;;;;;;;;;;;;;;5091225;28;20363;-58
2022/10/29 04:02:04;;;;;;;;;;;;;;;;;;5091532;28;19942;-58
2022/10/29 04:04:30;;;;;;;;;;;;;;;;;;5091074;28;20359;-59
2022/10/29 04:06:56;;;;;;;;;;;;;;;;;;5089048;28;19922;-58
2022/10/29 04:09:22;;;;;;;;;;;;;;;;;;5091488;28;19959;-59
2022/10/29 04:11:48;;;;;;;;;;;;;;;;;;5091661;28;19908;-59
2022/10/29 04:14:14;;;;;;;;;;;;;;;;;;5091056;28;19946;-58
2022/10/29 04:16:39;;;;;;;;;;;;;;;;;;5093144;28;19947;-58
2022/10/29 04:19:05;;;;;;;;;;;;;;;;;;5090790;28;20365;-59
2022/10/29 04:21:31;;;;;;;;;;;;;;;;;;5091152;28;19924;-58
2022/10/29 04:23:57;;;;;;;;;;;;;;;;;;5087875;28;20003;-58
2022/10/29 04:26:25;;;;;;;;;;;;;;;;;;5090924;28;21543;-58
2022/10/29 04:28:51;;;;;;;;;;;;;;;;;;5091248;28;20271;-58
2022/10/29 04:31:16;;;;;;;;;;;;;;;;;;5089805;28;20000;-59
2022/10/29 04:33:42;;;;;;;;;;;;;;;;;;5089277;28;19912;-58
2022/10/29 04:36:08;;;;;;;;;;;;;;;;;;5092026;28;19916;-58
2022/10/29 04:38:34;;;;;;;;;;;;;;;;;;5091108;28;19923;-58
2022/10/29 04:41:00;;;;;;;;;;;;;;;;;;5089835;28;19909;-57
2022/10/29 04:43:26;;;;;;;;;;;;;;;;;;5089080;28;19951;-59
2022/10/29 04:45:52;;;;;;;;;;;;;;;;;;5089744;28;19959;-59
2022/10/29 04:48:18;;;;;;;;;;;;;;;;;;5093000;28;19974;-59
2022/10/29 04:50:44;;;;;;;;;;;;;;;;;;5095027;28;20379;-58
2022/10/29 04:53:10;;;;;;;;;;;;;;;;;;5093181;28;19912;-59
2022/10/29 04:55:36;;;;;;;;;;;;;;;;;;5094899;28;20003;-58
2022/10/29 04:58:01;;;;;;;;;;;;;;;;;;5092483;28;19920;-59
2022/10/29 05:00:27;;;;;;;;;;;;;;;;;;5094543;28;19931;-59
2022/10/29 05:02:53;;;;;;;;;;;;;;;;;;5093013;28;19995;-58
2022/10/29 05:05:19;;;;;;;;;;;;;;;;;;5074680;28;19915;-58
2022/10/29 05:07:45;;;;;;;;;;;;;;;;;;5074408;28;19913;-59
2022/10/29 05:10:11;;;;;;;;;;;;;;;;;;5073881;28;19995;-58
2022/10/29 05:12:37;;;;;;;;;;;;;;;;;;5080544;28;19912;-59
2022/10/29 05:15:03;;;;;;;;;;;;;;;;;;5088804;28;19940;-59
2022/10/29 05:17:29;;;;;;;;;;;;;;;;;;5092062;28;20408;-58
2022/10/29 05:19:54;;;;;;;;;;;;;;;;;;5097881;28;19919;-59
2022/10/29 05:22:20;;;;;;;;;;;;;;;;;;5094641;28;20045;-58
2022/10/29 05:24:46;;;;;;;;;;;;;;;;;;5079162;28;19943;-59
2022/10/29 05:27:12;;;;;;;;;;;;;;;;;;5093952;28;19952;-58
2022/10/29 05:29:38;;;;;;;;;;;;;;;;;;5089120;28;19964;-58
2022/10/29 05:32:04;;;;;;;;;;;;;;;;;;5092271;28;19912;-59
2022/10/29 05:34:30;;;;;;;;;;;;;;;;;;5090807;28;19954;-58
2022/10/29 05:36:56;;;;;;;;;;;;;;;;;;5095044;28;20282;-58
2022/10/29 05:39:22;;;;;;;;;;;;;;;;;;5093941;28;19913;-59
2022/10/29 05:41:48;;;;;;;;;;;;;;;;;;5093357;28;19919;-58
2022/10/29 05:44:13;;;;;;;;;;;;;;;;;;5074751;28;20432;-58
2022/10/29 05:46:39;;;;;;;;;;;;;;;;;;5093510;28;19912;-58
2022/10/29 05:49:05;;;;;;;;;;;;;;;;;;5091657;28;19955;-58
2022/10/29 05:51:31;;;;;;;;;;;;;;;;;;5093461;28;19908;-58
2022/10/29 05:53:57;;;;;;;;;;;;;;;;;;5091894;28;19920;-58
2022/10/29 05:56:23;;;;;;;;;;;;;;;;;;5093723;28;19908;-59
2022/10/29 05:58:49;;;;;;;;;;;;;;;;;;5091393;28;19940;-59
2022/10/29 06:01:15;;;;;;;;;;;;;;;;;;5091992;28;20314;-58
2022/10/29 06:03:41;;;;;;;;;;;;;;;;;;5093824;28;20008;-58
2022/10/29 06:06:07;;;;;;;;;;;;;;;;;;5093871;28;20263;-58
2022/10/29 06:08:33;;;;;;;;;;;;;;;;;;5093227;28;19943;-58
2022/10/29 06:10:59;;;;;;;;;;;;;;;;;;5091261;28;20033;-58
2022/10/29 06:13:24;;;;;;;;;;;;;;;;;;5093301;28;19915;-58
2022/10/29 06:15:50;;;;;;;;;;;;;;;;;;5097431;28;20477;-59
2022/10/29 06:18:16;;;;;;;;;;;;;;;;;;5095232;28;19912;-59
2022/10/29 06:20:42;;;;;;;;;;;;;;;;;;5091166;28;19935;-58
2022/10/29 06:23:08;;;;;;;;;;;;;;;;;;5093394;28;19908;-59
2022/10/29 06:25:34;;;;;;;;;;;;;;;;;;5074482;28;19994;-57
2022/10/29 06:28:00;;;;;;;;;;;;;;;;;;5092023;28;19918;-59
2022/10/29 06:30:26;;;;;;;;;;;;;;;;;;5093510;28;19919;-58
2022/10/29 06:32:52;;;;;;;;;;;;;;;;;;5090467;28;19912;-58
2022/10/29 06:35:18;;;;;;;;;;;;;;;;;;5092325;28;20008;-58
2022/10/29 06:37:43;;;;;;;;;;;;;;;;;;5081062;28;20299;-57
2022/10/29 06:40:09;;;;;;;;;;;;;;;;;;5086853;28;20035;-58
2022/10/29 06:42:35;;;;;;;;;;;;;;;;;;5095641;28;19951;-58
2022/10/29 06:45:01;;;;;;;;;;;;;;;;;;5084173;28;19920;-59
2022/10/29 06:47:27;;;;;;;;;;;;;;;;;;5089077;28;19918;-59
2022/10/29 06:49:53;;;;;;;;;;;;;;;;;;5088307;28;19916;-58
2022/10/29 06:52:19;;;;;;;;;;;;;;;;;;5091896;28;19947;-59
2022/10/29 06:54:45;;;;;;;;;;;;;;;;;;5072845;28;19916;-58
2022/10/29 06:57:11;;;;;;;;;;;;;;;;;;5088976;28;20006;-58
2022/10/29 06:59:36;;;;;;;;;;;;;;;;;;5092277;28;20363;-58
2022/10/29 07:02:02;;;;;;;;;;;;;;;;;;5086791;28;19970;-59
2022/10/29 07:04:28;;;;;;;;;;;;;;;;;;5085272;28;19916;-58
2022/10/29 07:06:54;;;;;;;;;;;;;;;;;;5089438;28;19915;-58
2022/10/29 07:09:20;;;;;;;;;;;;;;;;;;5092261;28;19951;-58
2022/10/29 07:11:46;;;;;;;;;;;;;;;;;;5092869;28;20290;-58
2022/10/29 07:14:12;;;;;;;;;;;;;;;;;;5092233;28;20374;-58
2022/10/29 07:16:38;;;;;;;;;;;;;;;;;;5091788;28;19912;-58
2022/10/29 07:19:04;;;;;;;;;;;;;;;;;;5094727;28;20295;-59
2022/10/29 07:21:30;;;;;;;;;;;;;;;;;;5083584;28;19924;-58
2022/10/29 07:23:56;;;;;;;;;;;;;;;;;;5083874;28;19916;-59
2022/10/29 07:26:22;;;;;;;;;;;;;;;;;;5088328;28;20458;-58
2022/10/29 07:28:48;;;;;;;;;;;;;;;;;;5091610;28;19942;-57
2022/10/29 07:31:13;;;;;;;;;;;;;;;;;;5082185;28;20363;-59
2022/10/29 07:33:39;;;;;;;;;;;;;;;;;;5085414;28;19913;-59
2022/10/29 07:36:05;;;;;;;;;;;;;;;;;;5085443;28;19919;-58
2022/10/29 07:38:31;;;;;;;;;;;;;;;;;;5082489;28;19992;-58
2022/10/29 07:40:57;;;;;;;;;;;;;;;;;;5090442;28;19922;-58
2022/10/29 07:43:23;;;;;;;;;;;;;;;;;;5089287;28;19954;-58
2022/10/29 07:45:49;;;;;;;;;;;;;;;;;;5092036;28;20350;-59
2022/10/29 07:48:15;;;;;;;;;;;;;;;;;;5086437;28;19958;-59
2022/10/29 07:50:41;;;;;;;;;;;;;;;;;;5089723;28;19963;-59
2022/10/29 07:53:07;;;;;;;;;;;;;;;;;;5081318;28;20035;-58
2022/10/29 07:55:33;;;;;;;;;;;;;;;;;;5085224;28;19912;-59
2022/10/29 07:58:00;;;;;;;;;;;;;;;;;;5079251;28;19958;-58
2022/10/29 08:00:26;;;;;;;;;;;;;;;;;;5090966;28;19919;-59
2022/10/29 08:02:51;;;;;;;;;;;;;;;;;;5087333;28;20342;-58
2022/10/29 08:05:17;;;;;;;;;;;;;;;;;;5090961;28;19959;-58
2022/10/29 08:07:43;;;;;;;;;;;;;;;;;;5088631;28;20014;-57
2022/10/29 08:10:09;;;;;;;;;;;;;;;;;;5090592;28;20559;-58
2022/10/29 08:12:35;;;;;;;;;;;;;;;;;;5085601;28;19963;-58
2022/10/29 08:15:01;;;;;;;;;;;;;;;;;;5090129;28;20276;-59
2022/10/29 08:17:27;;;;;;;;;;;;;;;;;;5085043;28;19916;-59
2022/10/29 08:19:53;;;;;;;;;;;;;;;;;;5088508;28;19985;-59
2022/10/29 08:22:19;;;;;;;;;;;;;;;;;;5091681;28;19989;-58
2022/10/29 08:24:44;;;;;;;;;;;;;;;;;;5093955;28;19916;-58
2022/10/29 08:27:10;;;;;;;;;;;;;;;;;;5089586;28;20299;-59
2022/10/29 08:29:36;;;;;;;;;;;;;;;;;;5093945;28;19927;-58
2022/10/29 08:32:02;;;;;;;;;;;;;;;;;;5089256;28;19912;-59
2022/10/29 08:34:28;;;;;;;;;;;;;;;;;;5091006;28;20367;-58
2022/10/29 08:36:54;;;;;;;;;;;;;;;;;;5094276;28;19919;-58
2022/10/29 08:39:20;;;;;;;;;;;;;;;;;;5093768;28;19959;-58
2022/10/29 08:41:46;;;;;;;;;;;;;;;;;;5090297;28;19920;-58
2022/10/29 08:44:13;;;;;;;;;;;;;;;;;;5083065;28;19918;-59
2022/10/29 08:46:39;;;;;;;;;;;;;;;;;;5093026;28;20004;-58
2022/10/29 08:49:05;;;;;;;;;;;;;;;;;;5094989;28;20371;-59
2022/10/29 08:51:31;;;;;;;;;;;;;;;;;;5093367;28;20061;-58
2022/10/29 08:53:57;;;;;;;;;;;;;;;;;;5094070;28;19912;-59
2022/10/29 08:56:23;;;;;;;;;;;;;;;;;;5088856;28;19913;-58
2022/10/29 08:58:49;;;;;;;;;;;;;;;;;;5092465;28;19920;-59
2022/10/29 09:01:15;;;;;;;;;;;;;;;;;;5092540;28;20382;-59
2022/10/29 09:03:41;;;;;;;;;;;;;;;;;;5094148;28;19999;-59
2022/10/29 09:06:07;;;;;;;;;;;;;;;;;;5087316;28;19999;-59
2022/10/29 09:08:33;;;;;;;;;;;;;;;;;;5093939;28;20355;-58
2022/10/29 09:11:00;;;;;;;;;;;;;;;;;;5087213;28;19951;-59
2022/10/29 09:13:26;;;;;;;;;;;;;;;;;;5090365;28;19920;-58
2022/10/29 09:15:51;;;;;;;;;;;;;;;;;;5091819;28;19970;-58
2022/10/29 09:18:17;;;;;;;;;;;;;;;;;;5094088;28;20327;-59
2022/10/29 09:20:43;;;;;;;;;;;;;;;;;;5085323;28;19912;-59
2022/10/29 09:23:09;;;;;;;;;;;;;;;;;;5094264;28;19924;-58
2022/10/29 09:25:35;;;;;;;;;;;;;;;;;;5093585;28;19962;-59
2022/10/29 09:28:01;;;;;;;;;;;;;;;;;;5081465;28;19920;-58
2022/10/29 09:30:27;;;;;;;;;;;;;;;;;;5089484;28;20424;-59
2022/10/29 09:32:53;;;;;;;;;;;;;;;;;;5089078;28;19959;-58
2022/10/29 09:35:19;;;;;;;;;;;;;;;;;;5093462;28;19912;-59
2022/10/29 09:37:45;;;;;;;;;;;;;;;;;;5093917;28;19983;-59
2022/10/29 09:40:10;;;;;;;;;;;;;;;;;;5091378;28;19960;-59
2022/10/29 09:42:36;;;;;;;;;;;;;;;;;;5089619;28;19908;-59
2022/10/29 09:45:02;;;;;;;;;;;;;;;;;;5093264;28;19995;-59
2022/10/29 09:47:28;;;;;;;;;;;;;;;;;;5087351;28;20058;-60
2022/10/29 09:49:56;;;;;;;;;;;;;;;;;;5088009;28;19995;-59
2022/10/29 09:52:21;;;;;;;;;;;;;;;;;;5091735;28;19923;-58
2022/10/29 09:54:47;;;;;;;;;;;;;;;;;;5091436;28;19963;-59
2022/10/29 09:57:13;;;;;;;;;;;;;;;;;;5073334;28;20440;-59
2022/10/29 09:59:39;;;;;;;;;;;;;;;;;;5086230;28;19916;-59
2022/10/29 10:02:05;;;;;;;;;;;;;;;;;;5085746;28;20307;-59
2022/10/29 10:04:31;;;;;;;;;;;;;;;;;;5090944;28;19952;-59
2022/10/29 10:06:57;;;;;;;;;;;;;;;;;;5093342;28;19915;-59
2022/10/29 10:09:23;;;;;;;;;;;;;;;;;;5091444;28;19916;-59
2022/10/29 10:11:49;;;;;;;;;;;;;;;;;;5092925;28;19951;-60
2022/10/29 10:14:15;;;;;;;;;;;;;;;;;;5092765;28;20476;-59
2022/10/29 10:16:41;;;;;;;;;;;;;;;;;;5092627;28;19961;-58
2022/10/29 10:19:07;;;;;;;;;;;;;;;;;;5092408;28;20011;-60
2022/10/29 10:21:33;;;;;;;;;;;;;;;;;;5083326;28;20395;-59
2022/10/29 10:23:59;;;;;;;;;;;;;;;;;;5072893;28;19923;-59
2022/10/29 10:26:25;;;;;;;;;;;;;;;;;;5067198;28;19944;-58
2022/10/29 10:28:51;;;;;;;;;;;;;;;;;;5070560;28;19920;-58
2022/10/29 10:31:17;;;;;;;;;;;;;;;;;;5072062;28;19982;-59
2022/10/29 10:33:43;;;;;;;;;;;;;;;;;;5071861;28;20364;-59
2022/10/29 10:36:08;;;;;;;;;;;;;;;;;;5072270;28;19919;-59
2022/10/29 10:38:34;;;;;;;;;;;;;;;;;;5070757;28;20392;-59
2022/10/29 10:41:00;;;;;;;;;;;;;;;;;;5071255;28;19918;-59
2022/10/29 10:43:26;;;;;;;;;;;;;;;;;;5070167;28;20264;-59
2022/10/29 10:45:52;;;;;;;;;;;;;;;;;;5061438;28;19948;-59
2022/10/29 10:48:18;;;;;;;;;;;;;;;;;;5079731;28;19922;-59
2022/10/29 10:50:44;;;;;;;;;;;;;;;;;;5079904;28;19916;-59
2022/10/29 10:53:10;;;;;;;;;;;;;;;;;;5082648;28;19956;-59
2022/10/29 10:55:37;;;;;;;;;;;;;;;;;;5078479;28;19919;-58
2022/10/29 10:58:03;;;;;;;;;;;;;;;;;;5072199;28;19916;-59
2022/10/29 11:00:29;;;;;;;;;;;;;;;;;;5071484;28;19958;-59
2022/10/29 11:02:55;;;;;;;;;;;;;;;;;;5080272;28;19966;-59
2022/10/29 11:05:21;;;;;;;;;;;;;;;;;;5073057;28;19917;-58
2022/10/29 11:07:47;;;;;;;;;;;;;;;;;;5055270;28;20085;-59
2022/10/29 11:10:13;;;;;;;;;;;;;;;;;;5084461;28;19916;-59
2022/10/29 11:12:39;;;;;;;;;;;;;;;;;;5067843;28;20380;-59
2022/10/29 11:15:05;;;;;;;;;;;;;;;;;;5077340;28;19987;-59
2022/10/29 11:17:31;;;;;;;;;;;;;;;;;;5069766;28;19912;-59
2022/10/29 11:19:57;;;;;;;;;;;;;;;;;;5065806;28;19952;-59
2022/10/29 11:22:22;;;;;;;;;;;;;;;;;;5070731;28;19931;-59
2022/10/29 11:24:48;;;;;;;;;;;;;;;;;;5072013;28;19909;-59
2022/10/29 11:27:14;;;;;;;;;;;;;;;;;;5070997;28;19919;-59
2022/10/29 11:29:40;;;;;;;;;;;;;;;;;;5070561;28;19947;-59
2022/10/29 11:32:06;;;;;;;;;;;;;;;;;;5066847;28;19916;-60
2022/10/29 11:34:32;;;;;;;;;;;;;;;;;;5068269;28;19927;-59
2022/10/29 11:36:58;;;;;;;;;;;;;;;;;;5082704;28;21073;-59
2022/10/29 11:39:24;;;;;;;;;;;;;;;;;;5071099;28;20064;-59
2022/10/29 11:41:50;;;;;;;;;;;;;;;;;;5069501;28;19935;-59
2022/10/29 11:44:16;;;;;;;;;;;;;;;;;;5070322;28;19915;-59
2022/10/29 11:46:42;;;;;;;;;;;;;;;;;;5069388;28;19993;-59
2022/10/29 11:49:08;;;;;;;;;;;;;;;;;;5067081;28;19940;-60
2022/10/29 11:51:34;;;;;;;;;;;;;;;;;;5071049;28;20399;-59
2022/10/29 11:54:00;;;;;;;;;;;;;;;;;;5070214;28;19919;-59
2022/10/29 11:56:26;;;;;;;;;;;;;;;;;;5074766;28;19963;-60
2022/10/29 11:58:52;;;;;;;;;;;;;;;;;;5080180;28;19963;-58
2022/10/29 12:01:18;;;;;;;;;;;;;;;;;;5070571;28;19916;-59
2022/10/29 12:03:44;;;;;;;;;;;;;;;;;;5071268;28;20371;-60
2022/10/29 12:06:09;;;;;;;;;;;;;;;;;;5071490;28;19961;-60
2022/10/29 12:08:35;;;;;;;;;;;;;;;;;;5069710;28;19912;-59
2022/10/29 12:11:01;;;;;;;;;;;;;;;;;;5070805;28;20375;-60
2022/10/29 12:13:27;;;;;;;;;;;;;;;;;;5070923;28;19909;-59
2022/10/29 12:15:53;;;;;;;;;;;;;;;;;;5070967;28;19916;-60
2022/10/29 12:18:19;;;;;;;;;;;;;;;;;;5071071;28;19921;-59
2022/10/29 12:20:45;;;;;;;;;;;;;;;;;;5065653;28;19955;-59
2022/10/29 12:23:11;;;;;;;;;;;;;;;;;;5064136;28;20400;-60
2022/10/29 12:25:38;;;;;;;;;;;;;;;;;;5068589;28;19957;-59
2022/10/29 12:28:04;;;;;;;;;;;;;;;;;;5075664;28;19917;-60
2022/10/29 12:30:30;;;;;;;;;;;;;;;;;;5070102;28;19913;-58
2022/10/29 12:32:56;;;;;;;;;;;;;;;;;;5070730;28;19909;-60
2022/10/29 12:35:22;;;;;;;;;;;;;;;;;;5070440;28;19951;-60
2022/10/29 12:37:48;;;;;;;;;;;;;;;;;;5071004;28;19915;-59
2022/10/29 12:40:14;;;;;;;;;;;;;;;;;;5052907;28;20372;-60
2022/10/29 12:42:40;;;;;;;;;;;;;;;;;;5061523;28;19994;-60
2022/10/29 12:45:06;;;;;;;;;;;;;;;;;;5071820;28;20061;-59
2022/10/29 12:47:31;;;;;;;;;;;;;;;;;;5067882;28;19983;-60
2022/10/29 12:49:57;;;;;;;;;;;;;;;;;;5067397;28;19934;-59
2022/10/29 12:52:23;;;;;;;;;;;;;;;;;;5057958;28;19912;-60
2022/10/29 12:54:49;;;;;;;;;;;;;;;;;;5070556;28;20453;-59
2022/10/29 12:57:15;;;;;;;;;;;;;;;;;;5066151;28;19971;-59
2022/10/29 12:59:41;;;;;;;;;;;;;;;;;;5061807;28;20569;-60
2022/10/29 13:02:07;;;;;;;;;;;;;;;;;;5068678;28;19955;-59
2022/10/29 13:04:33;;;;;;;;;;;;;;;;;;5066633;28;20655;-60
2022/10/29 13:06:59;;;;;;;;;;;;;;;;;;5068222;28;20030;-59
2022/10/29 13:09:25;;;;;;;;;;;;;;;;;;5072368;28;19917;-59
2022/10/29 13:11:51;;;;;;;;;;;;;;;;;;5082555;28;20301;-60
2022/10/29 13:14:17;;;;;;;;;;;;;;;;;;5064933;28;19978;-59
2022/10/29 13:16:43;;;;;;;;;;;;;;;;;;5069392;28;20398;-59
2022/10/29 13:19:08;;;;;;;;;;;;;;;;;;5070169;28;20005;-59
2022/10/29 13:21:34;;;;;;;;;;;;;;;;;;5086465;28;19954;-60
2022/10/29 13:24:00;;;;;;;;;;;;;;;;;;5067322;28;20389;-60
2022/10/29 13:26:26;;;;;;;;;;;;;;;;;;5070784;28;19916;-60
2022/10/29 13:28:52;;;;;;;;;;;;;;;;;;5073435;28;19944;-59
2022/10/29 13:31:18;;;;;;;;;;;;;;;;;;5081830;28;19977;-58
2022/10/29 13:33:44;;;;;;;;;;;;;;;;;;5073747;28;19979;-59
2022/10/29 13:36:10;;;;;;;;;;;;;;;;;;5066201;28;19912;-60
2022/10/29 13:38:36;;;;;;;;;;;;;;;;;;5071070;28;19913;-59
2022/10/29 13:41:02;;;;;;;;;;;;;;;;;;5067597;28;20395;-59
2022/10/29 13:43:28;;;;;;;;;;;;;;;;;;5074003;28;19919;-59
2022/10/29 13:45:53;;;;;;;;;;;;;;;;;;5065370;28;20350;-60
2022/10/29 13:48:19;;;;;;;;;;;;;;;;;;5070036;28;19959;-59
2022/10/29 13:50:45;;;;;;;;;;;;;;;;;;5071065;28;20435;-59
2022/10/29 13:53:11;;;;;;;;;;;;;;;;;;5057461;28;20007;-59
2022/10/29 13:55:37;;;;;;;;;;;;;;;;;;5068127;28;19916;-60
2022/10/29 13:58:03;;;;;;;;;;;;;;;;;;5075199;28;19916;-59
2022/10/29 14:00:29;;;;;;;;;;;;;;;;;;5067325;28;19976;-60
2022/10/29 14:02:55;;;;;;;;;;;;;;;;;;5067750;28;19912;-60
2022/10/29 14:05:21;;;;;;;;;;;;;;;;;;5074727;28;20367;-59
2022/10/29 14:07:47;;;;;;;;;;;;;;;;;;5072413;28;19912;-59
2022/10/29 14:10:13;;;;;;;;;;;;;;;;;;5071824;28;19924;-59
2022/10/29 14:12:39;;;;;;;;;;;;;;;;;;5068779;28;19920;-58
2022/10/29 14:15:05;;;;;;;;;;;;;;;;;;5064207;28;20003;-59
2022/10/29 14:17:31;;;;;;;;;;;;;;;;;;5075219;28;19993;-58
2022/10/29 14:19:56;;;;;;;;;;;;;;;;;;5068625;28;20443;-59
2022/10/29 14:22:22;;;;;;;;;;;;;;;;;;5094732;28;20267;-59
2022/10/29 14:24:48;;;;;;;;;;;;;;;;;;5099265;28;19962;-59
2022/10/29 14:27:14;;;;;;;;;;;;;;;;;;5064865;28;19952;-59
2022/10/29 14:29:40;;;;;;;;;;;;;;;;;;5091746;28;19908;-58
2022/10/29 14:32:06;;;;;;;;;;;;;;;;;;5089145;28;19951;-59
2022/10/29 14:34:32;;;;;;;;;;;;;;;;;;5089414;28;20369;-59
2022/10/29 14:36:58;;;;;;;;;;;;;;;;;;5092026;28;20426;-59
2022/10/29 14:39:24;;;;;;;;;;;;;;;;;;5089371;28;20452;-59
2022/10/29 14:41:50;;;;;;;;;;;;;;;;;;5084560;28;19916;-58
2022/10/29 14:44:15;;;;;;;;;;;;;;;;;;5080628;28;19953;-59
2022/10/29 14:46:41;;;;;;;;;;;;;;;;;;5088909;28;19961;-59
2022/10/29 14:49:07;;;;;;;;;;;;;;;;;;5088900;28;20280;-60
2022/10/29 14:51:33;;;;;;;;;;;;;;;;;;5091493;28;19908;-59
2022/10/29 14:53:59;;;;;;;;;;;;;;;;;;5091582;28;19963;-59
2022/10/29 14:56:25;;;;;;;;;;;;;;;;;;5091649;28;19916;-59
2022/10/29 14:58:51;;;;;;;;;;;;;;;;;;5091625;28;20456;-59
2022/10/29 15:01:19;;;;;;;;;;;;;;;;;;5084837;28;19912;-58
2022/10/29 15:03:45;;;;;;;;;;;;;;;;;;5072714;28;20383;-59
2022/10/29 15:06:11;;;;;;;;;;;;;;;;;;5088786;28;19912;-60
2022/10/29 15:08:37;;;;;;;;;;;;;;;;;;5092421;28;19997;-60
2022/10/29 15:11:03;;;;;;;;;;;;;;;;;;5088124;28;19955;-59
2022/10/29 15:13:29;;;;;;;;;;;;;;;;;;5087996;28;19912;-60
2022/10/29 15:15:55;;;;;;;;;;;;;;;;;;5077481;28;20028;-59
2022/10/29 15:18:21;;;;;;;;;;;;;;;;;;5088258;28;19943;-59
2022/10/29 15:20:47;;;;;;;;;;;;;;;;;;5077133;28;20034;-59
2022/10/29 15:23:12;;;;;;;;;;;;;;;;;;5083392;28;19926;-60
2022/10/29 15:25:38;;;;;;;;;;;;;;;;;;5091619;28;19908;-60
2022/10/29 15:28:05;;;;;;;;;;;;;;;;;;5091275;28;19966;-59
2022/10/29 15:30:31;;;;;;;;;;;;;;;;;;5089964;28;19912;-59
2022/10/29 15:32:57;;;;;;;;;;;;;;;;;;5090693;28;19935;-59
2022/10/29 15:35:23;;;;;;;;;;;;;;;;;;5089545;28;19955;-59
2022/10/29 15:37:50;;;;;;;;;;;;;;;;;;5091906;28;19912;-59
2022/10/29 15:40:16;;;;;;;;;;;;;;;;;;5088230;28;20385;-60
2022/10/29 15:42:44;;;;;;;;;;;;;;;;;;5091970;28;19912;-59
2022/10/29 15:45:10;;;;;;;;;;;;;;;;;;5090575;28;19955;-58
2022/10/29 15:47:35;;;;;;;;;;;;;;;;;;5091780;28;19951;-59
2022/10/29 15:50:01;;;;;;;;;;;;;;;;;;5090964;28;20053;-60
2022/10/29 15:52:27;;;;;;;;;;;;;;;;;;5092268;28;19912;-58
2022/10/29 15:54:53;;;;;;;;;;;;;;;;;;5088506;28;19988;-59
2022/10/29 15:57:19;;;;;;;;;;;;;;;;;;5086436;28;20030;-59
2022/10/29 15:59:45;;;;;;;;;;;;;;;;;;5086332;28;19916;-58
2022/10/29 16:02:11;;;;;;;;;;;;;;;;;;5092978;28;19916;-59
2022/10/29 16:04:37;;;;;;;;;;;;;;;;;;5091866;28;19962;-59
2022/10/29 16:07:03;;;;;;;;;;;;;;;;;;5089531;28;20289;-59
2022/10/29 16:09:29;;;;;;;;;;;;;;;;;;5091951;28;19912;-59
2022/10/29 16:11:55;;;;;;;;;;;;;;;;;;5088072;28;19912;-59
2022/10/29 16:14:21;;;;;;;;;;;;;;;;;;5103997;28;19977;-59
2022/10/29 16:16:47;;;;;;;;;;;;;;;;;;5090934;28;20369;-58
2022/10/29 16:19:12;;;;;;;;;;;;;;;;;;5090000;28;20015;-59
2022/10/29 16:21:38;;;;;;;;;;;;;;;;;;5087104;28;19947;-59
2022/10/29 16:24:04;;;;;;;;;;;;;;;;;;5089657;28;19947;-59
2022/10/29 16:26:30;;;;;;;;;;;;;;;;;;5088643;28;20121;-60
2022/10/29 16:28:56;;;;;;;;;;;;;;;;;;5087940;28;19912;-59
2022/10/29 16:31:22;;;;;;;;;;;;;;;;;;5090942;28;19916;-59
2022/10/29 16:33:48;;;;;;;;;;;;;;;;;;5089788;28;19952;-58
2022/10/29 16:36:14;;;;;;;;;;;;;;;;;;5085935;28;19912;-58
2022/10/29 16:38:40;;;;;;;;;;;;;;;;;;5085279;28;19970;-59
2022/10/29 16:41:06;;;;;;;;;;;;;;;;;;5078915;28;20317;-59
2022/10/29 16:43:32;;;;;;;;;;;;;;;;;;5092173;28;20340;-59